createdAt,value
2019-04-07T00:02:23.390Z,34
2019-04-07T00:07:29.709Z,29.6
2019-04-07T00:12:36.251Z,27.5
2019-04-07T00:17:41.999Z,28.2
2019-04-07T00:22:47.081Z,31.2
2019-04-07T00:27:52.956Z,27.1
2019-04-07T00:32:59.589Z,26.1
2019-04-07T00:38:04.906Z,28.2
2019-04-07T00:43:10.403Z,29
2019-04-07T00:48:16.946Z,29.8
2019-04-07T00:53:22.331Z,28.2
2019-04-07T00:58:28.358Z,30.6
2019-04-07T01:03:33.705Z,29.5
2019-04-07T01:08:41.551Z,32.2
2019-04-07T01:13:41.803Z,38.8
2019-04-07T01:18:48.174Z,31.2
2019-04-07T01:23:53.324Z,41.3
2019-04-07T01:28:59.040Z,33.7
2019-04-07T01:34:05.928Z,29
2019-04-07T01:39:11.886Z,30.7
2019-04-07T01:44:18.086Z,27.7
2019-04-07T01:49:24.747Z,29.5
2019-04-07T01:54:31.848Z,32.8
2019-04-07T01:59:37.719Z,26.2
2019-04-07T02:04:44.687Z,34.6
2019-04-07T02:09:50.048Z,33.9
2019-04-07T02:14:56.475Z,50.6
2019-04-07T02:20:03.648Z,43.3
2019-04-07T02:25:10.876Z,32.3
2019-04-07T02:30:17.757Z,24.8
2019-04-07T02:35:26.479Z,30.7
2019-04-07T02:40:34.290Z,25.4
2019-04-07T02:45:41.080Z,22.5
2019-04-07T02:50:48.874Z,22.5
2019-04-07T02:55:55.061Z,23.3
2019-04-07T03:01:01.872Z,24.4
2019-04-07T03:06:10.071Z,22.9
2019-04-07T03:11:10.518Z,23.2
2019-04-07T03:16:17.216Z,25.9
2019-04-07T03:21:25.005Z,24.5
2019-04-07T03:26:32.238Z,24.8
2019-04-07T03:31:38.803Z,25.5
2019-04-07T03:37:05.310Z,24
2019-04-07T03:41:47.688Z,22.7
2019-04-07T03:46:57.202Z,21.4
2019-04-07T03:52:04.619Z,20.5
2019-04-07T03:57:13.164Z,22.2
2019-04-07T04:07:31.054Z,22.9
2019-04-07T04:12:35.604Z,21.7
2019-04-07T04:17:42.603Z,22.2
2019-04-07T04:22:49.270Z,23.9
2019-04-07T04:27:55.128Z,24.6
2019-04-07T04:33:03.895Z,25.5
2019-04-07T04:38:12.163Z,23.2
2019-04-07T04:43:18.589Z,22.4
2019-04-07T04:48:24.543Z,21
2019-04-07T04:53:32.048Z,22
2019-04-07T04:58:38.601Z,21.1
2019-04-07T05:03:43.857Z,23.1
2019-04-07T05:08:51.139Z,19.5
2019-04-07T05:13:58.097Z,18.3
2019-04-07T05:19:04.445Z,19.3
2019-04-07T05:24:10.357Z,19.6
2019-04-07T05:29:16.823Z,17.6
2019-04-07T05:34:23.065Z,17.9
2019-04-07T05:39:28.757Z,17.1
2019-04-07T05:44:35.346Z,16.5
2019-04-07T05:49:41.476Z,14.2
2019-04-07T05:54:49.880Z,15.3
2019-04-07T05:59:56.390Z,15.8
2019-04-07T06:05:02.086Z,17.4
2019-04-07T06:10:08.889Z,16.4
2019-04-07T06:15:14.987Z,16.5
2019-04-07T06:20:18.086Z,15.4
2019-04-07T06:25:24.973Z,16
2019-04-07T06:30:29.355Z,16.1
2019-04-07T06:35:29.148Z,18.6
2019-04-07T06:40:35.155Z,17.3
2019-04-07T06:45:44.099Z,18.8
2019-04-07T06:50:57.676Z,19.6
2019-04-07T06:55:58.353Z,17.8
2019-04-07T07:01:02.194Z,18.5
2019-04-07T07:06:01.210Z,18.7
2019-04-07T07:11:09.458Z,19.5
2019-04-07T07:16:10.817Z,18.6
2019-04-07T07:21:11.107Z,21.2
2019-04-07T07:26:17.909Z,23.9
2019-04-07T07:31:18.133Z,21.5
2019-04-07T07:36:21.406Z,24.8
2019-04-07T07:41:28.021Z,24.9
2019-04-07T07:46:34.390Z,27.1
2019-04-07T07:51:40.634Z,24.4
2019-04-07T07:56:48.098Z,21.8
2019-04-07T07:57:57.205Z,22.2
2019-04-07T08:02:56.101Z,21.2
2019-04-07T08:08:01.951Z,24
2019-04-07T08:13:07.829Z,25.9
2019-04-07T08:18:14.028Z,25.1
2019-04-07T08:23:14.444Z,22
2019-04-07T08:28:20.822Z,24.2
2019-04-07T08:33:29.415Z,23.2
2019-04-07T08:38:36.644Z,24
2019-04-07T08:43:42.986Z,23.9
2019-04-07T08:48:52.501Z,21.4
2019-04-07T08:54:00.226Z,21.1
2019-04-07T08:59:16.765Z,21.5
2019-04-07T09:04:14.979Z,22.5
2019-04-07T09:09:13.927Z,23.5
2019-04-07T09:14:22.264Z,25.7
2019-04-07T09:19:27.009Z,24.2
2019-04-07T09:24:33.896Z,26.2
2019-04-07T09:29:39.978Z,25.4
2019-04-07T09:34:50.407Z,26.1
2019-04-07T09:39:58.385Z,24.4
2019-04-07T09:45:08.946Z,23.2
2019-04-07T09:50:07.409Z,24.8
2019-04-07T09:55:14.163Z,22.3
2019-04-07T10:00:23.815Z,28.2
2019-04-07T10:05:20.250Z,22.9
2019-04-07T10:10:28.172Z,22.5
2019-04-07T10:15:27.962Z,21.8
2019-04-07T10:20:33.621Z,21.4
2019-04-07T10:25:40.303Z,23.2
2019-04-07T10:30:47.098Z,22.9
2019-04-07T10:35:52.453Z,21.2
2019-04-07T10:40:59.332Z,23.7
2019-04-07T10:46:06.741Z,23.2
2019-04-07T10:51:12.535Z,24.3
2019-04-07T10:56:19.831Z,25.7
2019-04-07T11:01:28.504Z,26.6
2019-04-07T11:06:35.626Z,21.3
2019-04-07T11:11:42.141Z,23.4
2019-04-07T11:16:43.133Z,27.5
2019-04-07T11:21:50.259Z,25.8
2019-04-07T11:26:56.799Z,22.9
2019-04-07T11:32:01.807Z,24
2019-04-07T11:37:06.017Z,22.2
2019-04-07T11:42:07.577Z,24.2
2019-04-07T11:47:13.095Z,21.6
2019-04-07T11:52:19.235Z,23.7
2019-04-07T11:57:27.087Z,21
2019-04-07T12:02:31.903Z,18.9
2019-04-07T12:07:38.052Z,20.2
2019-04-07T12:12:44.183Z,21.8
2019-04-07T12:17:51.231Z,22.1
2019-04-07T12:22:58.184Z,20.7
2019-04-07T12:28:04.335Z,17.2
2019-04-07T12:33:10.341Z,22.3
2019-04-07T12:38:15.434Z,22.1
2019-04-07T12:43:22.962Z,21.3
2019-04-07T12:48:31.475Z,20
2019-04-07T12:53:33.407Z,22.2
2019-04-07T12:58:32.348Z,17.9
2019-04-07T13:03:39.121Z,21.9
2019-04-07T13:08:47.854Z,20.1
2019-04-07T13:13:49.632Z,21.6
2019-04-07T13:18:55.565Z,20.1
2019-04-07T13:24:09.240Z,18.5
2019-04-07T13:29:07.943Z,18.5
2019-04-07T13:34:14.635Z,22.6
2019-04-07T13:39:21.575Z,22.5
2019-04-07T13:44:29.431Z,21.1
2019-04-07T13:49:37.219Z,19.2
2019-04-07T13:54:45.326Z,20.3
2019-04-07T13:59:51.944Z,20.4
2019-04-07T14:04:52.275Z,23.3
2019-04-07T14:10:04.045Z,22.2
2019-04-07T14:15:09.430Z,17.8
2019-04-07T14:20:16.054Z,19.1
2019-04-07T14:25:22.145Z,19.9
2019-04-07T14:30:29.123Z,17.9
2019-04-07T14:35:35.745Z,17.2
2019-04-07T14:40:43.456Z,22.9
2019-04-07T14:45:48.491Z,16.5
2019-04-07T14:50:56.020Z,20.4
2019-04-07T14:56:05.751Z,18.6
2019-04-07T15:01:06.532Z,18.6
2019-04-07T15:06:13.378Z,16.9
2019-04-07T15:11:19.618Z,17.5
2019-04-07T15:16:24.795Z,18.7
2019-04-07T15:21:32.814Z,16.9
2019-04-07T15:26:37.837Z,23.4
2019-04-07T15:31:43.890Z,19.9
2019-04-07T15:36:44.381Z,20.7
2019-04-07T15:41:45.518Z,19.6
2019-04-07T15:46:53.320Z,19.8
2019-04-07T15:52:01.443Z,22.1
2019-04-07T15:57:04.044Z,20.2
2019-04-07T16:02:11.260Z,21.2
2019-04-07T16:07:20.101Z,18.1
2019-04-07T16:12:27.284Z,21
2019-04-07T16:17:34.735Z,20.8
2019-04-07T16:22:40.137Z,20.9
2019-04-07T16:27:45.717Z,19.4
2019-04-07T16:32:52.489Z,20.9
2019-04-07T16:37:58.253Z,19.6
2019-04-07T16:43:05.995Z,20.3
2019-04-07T16:48:04.931Z,20.2
2019-04-07T16:53:06.476Z,21
2019-04-07T16:58:04.433Z,21
2019-04-07T17:03:05.650Z,22.2
2019-04-07T17:08:11.121Z,19.4
2019-04-07T17:13:20.395Z,26.5
2019-04-07T17:18:17.136Z,24.3
2019-04-07T17:23:23.093Z,25.8
2019-04-07T17:28:30.142Z,27.9
2019-04-07T17:33:38.014Z,24.8
2019-04-07T17:38:46.728Z,27.9
2019-04-07T17:43:57.150Z,35.2
2019-04-07T17:49:01.473Z,52.2
2019-04-07T17:54:05.032Z,37.8
2019-04-07T17:59:14.235Z,36.4
2019-04-07T18:04:26.963Z,29.2
2019-04-07T18:09:20.898Z,31.4
2019-04-07T18:14:29.864Z,33.2
2019-04-07T18:19:34.729Z,32.7
2019-04-07T18:24:31.764Z,31.7
2019-04-07T18:29:47.942Z,34.9
2019-04-07T18:39:55.524Z,42.5
2019-04-07T18:44:55.803Z,46.4
2019-04-07T18:50:03.634Z,45.5
2019-04-07T19:00:05.921Z,43.8
2019-04-07T19:05:10.231Z,42.4
2019-04-07T19:10:11.711Z,37.6
2019-04-07T19:15:16.334Z,38.6
2019-04-07T19:20:17.246Z,37.4
2019-04-07T19:25:23.383Z,37.6
2019-04-07T19:30:29.302Z,38.5
2019-04-07T19:35:34.580Z,39.1
2019-04-07T19:40:40.433Z,37.8
2019-04-07T19:45:44.517Z,38.3
2019-04-07T19:50:54.734Z,39.8
2019-04-07T19:55:57.711Z,39.4
2019-04-07T20:01:00.096Z,39.5
2019-04-07T20:06:04.647Z,39.7
2019-04-07T20:11:12.647Z,40.7
2019-04-07T20:16:19.843Z,43.4
2019-04-07T20:21:35.716Z,41.7
2019-04-07T20:26:34.824Z,43.6
2019-04-07T20:31:38.995Z,42.6
2019-04-07T20:36:45.637Z,45.5
2019-04-07T20:41:53.333Z,44.8
2019-04-07T20:47:00.712Z,45.8
2019-04-07T20:52:08.434Z,43.9
2019-04-07T20:57:16.827Z,43.6
2019-04-07T21:02:23.169Z,45.3
2019-04-07T21:07:31.297Z,47.8
2019-04-07T21:12:37.073Z,43.7
2019-04-07T21:17:41.392Z,45.1
2019-04-07T21:22:47.452Z,43.1
2019-04-07T21:27:53.539Z,48.8
2019-04-07T21:33:00.325Z,52.7
2019-04-07T21:38:06.117Z,44.8
2019-04-07T21:43:11.672Z,46.2
2019-04-07T21:48:18.025Z,62.1
2019-04-07T21:53:22.857Z,48.2
2019-04-07T21:58:26.864Z,43.7
2019-04-07T22:03:33.210Z,51.1
2019-04-07T22:08:41.976Z,46.7
2019-04-07T22:13:43.258Z,76.7
2019-04-07T22:18:49.915Z,54.3
2019-04-07T22:23:57.038Z,47.7
2019-04-07T22:29:05.921Z,43.4
2019-04-07T22:34:14.450Z,46.3
2019-04-07T22:39:12.058Z,43.9
2019-04-07T22:44:19.827Z,47.6
2019-04-07T22:49:18.506Z,46.7
2019-04-07T22:54:27.187Z,44.7
2019-04-07T22:59:26.380Z,47
2019-04-07T23:04:34.262Z,45.3
2019-04-07T23:09:41.831Z,46.2
2019-04-07T23:14:47.652Z,55.1
2019-04-07T23:19:54.701Z,45.1
2019-04-07T23:25:00.246Z,43.7
2019-04-07T23:30:06.517Z,45.4
2019-04-07T23:35:12.652Z,47.1
2019-04-07T23:40:19.562Z,45
2019-04-07T23:45:25.601Z,46.2
2019-04-07T23:50:31.498Z,45.2
2019-04-07T23:55:40.024Z,43.3
